createdAt,value
2019-03-25T00:00:53.871Z,32.00
2019-03-25T00:03:25.715Z,29.93
2019-03-25T00:05:57.581Z,30.63
2019-03-25T00:08:29.627Z,32.00
2019-03-25T00:11:05.274Z,32.27
2019-03-25T00:13:36.948Z,32.87
2019-03-25T00:16:08.702Z,30.77
2019-03-25T00:18:40.667Z,30.20
2019-03-25T00:21:12.373Z,30.03
2019-03-25T00:23:44.030Z,30.90
2019-03-25T00:26:16.045Z,28.40
2019-03-25T00:28:48.731Z,30.80
2019-03-25T00:31:21.866Z,29.83
2019-03-25T00:33:53.475Z,29.90
2019-03-25T00:36:25.320Z,30.27
2019-03-25T00:38:56.925Z,32.10
2019-03-25T00:41:28.575Z,32.27
2019-03-25T00:44:00.184Z,29.33
2019-03-25T00:46:31.877Z,32.67
2019-03-25T00:49:03.507Z,31.20
2019-03-25T00:51:35.202Z,30.57
2019-03-25T00:54:07.233Z,31.00
2019-03-25T00:56:40.028Z,29.23
2019-03-25T00:59:11.755Z,29.70
2019-03-25T01:01:50.173Z,31.00
2019-03-25T01:04:21.999Z,30.50
2019-03-25T01:06:53.701Z,28.83
2019-03-25T01:09:25.377Z,31.60
2019-03-25T01:11:57.065Z,29.53
2019-03-25T01:14:28.948Z,31.70
2019-03-25T01:17:12.617Z,32.73
2019-03-25T01:19:44.321Z,31.97
2019-03-25T01:22:16.112Z,33.33
2019-03-25T01:24:48.133Z,31.97
2019-03-25T01:27:19.806Z,32.13
2019-03-25T01:29:51.471Z,29.57
2019-03-25T01:32:23.221Z,30.43
2019-03-25T01:34:54.919Z,32.40
2019-03-25T01:37:26.927Z,32.77
2019-03-25T01:39:58.631Z,33.20
2019-03-25T01:42:30.315Z,32.27
2019-03-25T01:45:02.459Z,31.30
2019-03-25T01:47:34.597Z,32.43
2019-03-25T01:50:06.838Z,33.13
2019-03-25T01:52:38.573Z,33.17
2019-03-25T01:55:13.665Z,33.17
2019-03-25T01:57:43.981Z,34.17
2019-03-25T02:00:15.929Z,36.20
2019-03-25T02:02:47.633Z,34.07
2019-03-25T02:05:19.352Z,33.53
2019-03-25T02:07:51.199Z,33.60
2019-03-25T02:10:22.909Z,33.50
2019-03-25T02:12:54.545Z,33.30
2019-03-25T02:15:26.328Z,33.87
2019-03-25T02:17:58.018Z,34.97
2019-03-25T02:20:29.764Z,32.90
2019-03-25T02:23:01.572Z,31.73
2019-03-25T02:25:33.585Z,35.10
2019-03-25T02:28:05.358Z,34.60
2019-03-25T02:30:37.662Z,39.60
2019-03-25T02:33:11.174Z,38.87
2019-03-25T02:35:42.890Z,43.77
2019-03-25T02:38:33.394Z,40.20
2019-03-25T02:41:05.560Z,36.33
2019-03-25T02:43:37.765Z,35.07
2019-03-25T02:46:09.456Z,35.70
2019-03-25T02:48:41.130Z,34.60
2019-03-25T02:51:13.911Z,33.30
2019-03-25T02:53:45.745Z,32.63
2019-03-25T02:56:17.545Z,32.93
2019-03-25T02:58:49.236Z,33.90
2019-03-25T03:01:21.011Z,32.50
2019-03-25T03:03:52.841Z,33.23
2019-03-25T03:06:24.528Z,33.37
2019-03-25T03:08:56.276Z,34.13
2019-03-25T03:11:28.648Z,34.73
2019-03-25T03:14:00.330Z,33.80
2019-03-25T03:16:32.026Z,33.23
2019-03-25T03:19:04.831Z,33.13
2019-03-25T03:21:36.496Z,32.67
2019-03-25T03:24:08.226Z,31.23
2019-03-25T03:26:41.046Z,33.03
2019-03-25T03:29:12.901Z,33.00
2019-03-25T03:31:44.541Z,32.17
2019-03-25T03:34:16.397Z,34.27
2019-03-25T03:36:48.086Z,33.87
2019-03-25T03:39:19.997Z,33.87
2019-03-25T03:41:51.710Z,33.80
2019-03-25T03:44:23.454Z,33.63
2019-03-25T03:46:55.107Z,34.30
2019-03-25T03:49:26.839Z,34.33
2019-03-25T03:51:59.067Z,36.27
2019-03-25T03:54:30.745Z,35.40
2019-03-25T03:57:02.837Z,37.33
2019-03-25T03:59:34.890Z,38.13
2019-03-25T04:02:06.602Z,36.33
2019-03-25T04:04:38.268Z,36.57
2019-03-25T04:07:10.142Z,35.40
2019-03-25T04:09:41.965Z,35.13
2019-03-25T04:12:13.621Z,35.30
2019-03-25T04:14:45.274Z,38.10
2019-03-25T04:17:16.935Z,40.50
2019-03-25T04:19:48.612Z,41.20
2019-03-25T04:22:20.281Z,36.50
2019-03-25T04:24:52.016Z,34.27
2019-03-25T04:27:24.092Z,33.67
2019-03-25T04:29:55.745Z,33.60
2019-03-25T04:32:27.435Z,36.63
2019-03-25T04:34:59.436Z,32.27
2019-03-25T04:37:31.565Z,35.33
2019-03-25T04:40:03.255Z,33.80
2019-03-25T04:42:34.998Z,35.10
2019-03-25T04:45:07.207Z,36.20
2019-03-25T04:47:39.130Z,38.33
2019-03-25T04:50:10.817Z,39.10
2019-03-25T04:52:42.513Z,38.70
2019-03-25T04:55:14.128Z,39.00
2019-03-25T04:57:46.185Z,39.63
2019-03-25T05:00:24.039Z,38.23
2019-03-25T05:02:55.720Z,34.43
2019-03-25T05:05:27.374Z,35.20
2019-03-25T05:07:59.063Z,35.20
2019-03-25T05:10:30.849Z,34.40
2019-03-25T05:13:02.937Z,35.67
2019-03-25T05:15:34.597Z,36.30
2019-03-25T05:18:06.236Z,34.33
2019-03-25T05:20:37.885Z,35.37
2019-03-25T05:23:09.643Z,36.87
2019-03-25T05:25:41.321Z,37.87
2019-03-25T05:28:13.026Z,39.03
2019-03-25T05:30:44.843Z,39.97
2019-03-25T05:33:16.645Z,39.83
2019-03-25T05:35:48.275Z,38.30
2019-03-25T05:38:19.863Z,39.30
2019-03-25T05:40:51.607Z,38.20
2019-03-25T05:43:23.287Z,40.10
2019-03-25T05:45:55.087Z,39.60
2019-03-25T05:48:27.077Z,39.73
2019-03-25T05:50:58.696Z,38.80
2019-03-25T05:53:30.522Z,35.90
2019-03-25T05:56:02.279Z,35.60
2019-03-25T05:58:34.160Z,33.57
2019-03-25T06:01:05.793Z,34.63
2019-03-25T06:03:37.617Z,34.60
2019-03-25T06:06:09.258Z,34.50
2019-03-25T06:08:41.197Z,36.93
2019-03-25T06:11:12.863Z,34.43
2019-03-25T06:13:44.642Z,34.67
2019-03-25T06:16:16.257Z,36.60
2019-03-25T06:18:48.259Z,34.50
2019-03-25T06:21:20.209Z,33.67
2019-03-25T06:23:52.015Z,33.43
2019-03-25T06:26:23.983Z,32.20
2019-03-25T06:28:55.748Z,31.97
2019-03-25T06:31:27.657Z,30.60
2019-03-25T06:33:59.437Z,30.83
2019-03-25T06:36:31.158Z,32.50
2019-03-25T06:39:03.469Z,30.10
2019-03-25T06:41:35.098Z,30.17
2019-03-25T06:44:06.725Z,29.27
2019-03-25T06:46:38.497Z,30.13
2019-03-25T06:49:10.119Z,28.80
2019-03-25T06:51:42.035Z,29.73
2019-03-25T06:54:13.798Z,29.67
2019-03-25T06:56:45.491Z,29.57
2019-03-25T06:59:17.503Z,28.37
2019-03-25T07:01:49.269Z,26.73
2019-03-25T07:04:21.005Z,26.33
2019-03-25T07:06:53.249Z,29.00
2019-03-25T07:09:25.247Z,28.80
2019-03-25T07:11:57.033Z,28.40
2019-03-25T07:14:30.079Z,29.37
2019-03-25T07:17:01.881Z,27.00
2019-03-25T07:19:33.489Z,25.57
2019-03-25T07:22:05.146Z,27.87
2019-03-25T07:24:36.948Z,26.93
2019-03-25T07:27:08.979Z,26.33
2019-03-25T07:29:41.036Z,25.83
2019-03-25T07:32:13.173Z,25.80
2019-03-25T07:34:45.058Z,25.27
2019-03-25T07:37:16.695Z,23.67
2019-03-25T07:39:48.639Z,24.73
2019-03-25T07:42:20.303Z,24.63
2019-03-25T07:44:52.238Z,22.83
2019-03-25T07:47:24.061Z,20.60
2019-03-25T07:49:55.711Z,19.67
2019-03-25T07:52:33.575Z,18.50
2019-03-25T07:55:05.771Z,19.63
2019-03-25T07:57:47.733Z,19.30
2019-03-25T08:00:13.755Z,17.27
2019-03-25T08:02:45.861Z,18.20
2019-03-25T08:05:17.491Z,17.10
2019-03-25T08:07:49.683Z,17.23
2019-03-25T08:10:33.049Z,16.47
2019-03-25T08:13:05.162Z,16.07
2019-03-25T08:15:37.165Z,15.17
2019-03-25T08:18:20.051Z,14.90
2019-03-25T08:20:51.738Z,15.23
2019-03-25T08:23:23.476Z,14.10
2019-03-25T08:25:55.419Z,14.27
2019-03-25T08:28:27.541Z,13.70
2019-03-25T08:30:59.201Z,12.80
2019-03-25T08:33:31.093Z,11.60
2019-03-25T08:36:02.734Z,12.90
2019-03-25T08:38:34.572Z,12.73
2019-03-25T08:41:06.501Z,11.40
2019-03-25T08:43:38.207Z,10.87
2019-03-25T08:46:10.137Z,10.70
2019-03-25T08:48:41.801Z,9.27
2019-03-25T08:51:13.411Z,8.83
2019-03-25T08:53:45.264Z,8.83
2019-03-25T08:56:17.027Z,7.10
2019-03-25T08:58:48.745Z,6.90
2019-03-25T09:01:20.741Z,7.73
2019-03-25T09:03:52.409Z,7.77
2019-03-25T09:06:24.124Z,6.70
2019-03-25T09:08:55.749Z,6.30
2019-03-25T09:11:27.599Z,6.20
2019-03-25T09:13:59.485Z,6.10
2019-03-25T09:16:31.735Z,5.60
2019-03-25T09:19:03.341Z,6.40
2019-03-25T09:21:35.471Z,7.20
2019-03-25T09:24:07.353Z,5.97
2019-03-25T09:26:40.363Z,7.10
2019-03-25T09:29:13.495Z,7.70
2019-03-25T09:31:45.334Z,8.17
2019-03-25T09:34:16.942Z,7.80
2019-03-25T09:36:48.796Z,7.27
2019-03-25T09:39:20.882Z,7.50
2019-03-25T09:41:54.414Z,6.40
2019-03-25T09:44:26.502Z,6.70
2019-03-25T09:46:58.619Z,7.33
2019-03-25T09:49:30.298Z,7.20
2019-03-25T09:52:02.127Z,7.27
2019-03-25T09:54:33.801Z,7.30
2019-03-25T09:57:05.477Z,8.83
2019-03-25T09:59:37.117Z,7.57
2019-03-25T10:02:09.109Z,7.90
2019-03-25T10:04:41.071Z,8.17
2019-03-25T10:07:21.597Z,8.33
2019-03-25T10:09:53.667Z,7.70
2019-03-25T10:12:25.365Z,7.60
2019-03-25T10:14:57.060Z,7.47
2019-03-25T10:17:28.876Z,7.27
2019-03-25T10:20:00.659Z,7.10
2019-03-25T10:22:32.318Z,7.63
2019-03-25T10:25:04.330Z,6.97
2019-03-25T10:27:36.050Z,7.23
2019-03-25T10:30:08.355Z,8.27
2019-03-25T10:32:40.075Z,6.90
2019-03-25T10:35:13.625Z,7.50
2019-03-25T10:37:45.227Z,7.40
2019-03-25T10:40:16.877Z,6.93
2019-03-25T10:42:48.528Z,7.80
2019-03-25T10:45:20.219Z,7.47
2019-03-25T10:47:52.075Z,7.40
2019-03-25T10:50:23.916Z,8.40
2019-03-25T10:52:55.657Z,8.40
2019-03-25T10:55:27.516Z,7.93
2019-03-25T10:57:59.375Z,7.87
2019-03-25T11:00:30.989Z,7.20
2019-03-25T11:03:02.997Z,8.30
2019-03-25T11:05:34.912Z,7.63
2019-03-25T11:08:06.580Z,7.60
2019-03-25T11:10:38.569Z,7.50
2019-03-25T11:13:10.290Z,6.80
2019-03-25T11:15:41.985Z,7.30
2019-03-25T11:18:24.871Z,7.10
2019-03-25T11:20:56.512Z,7.60
2019-03-25T11:23:28.247Z,8.30
2019-03-25T11:25:59.930Z,8.20
2019-03-25T11:28:31.840Z,6.77
2019-03-25T11:31:14.248Z,6.87
2019-03-25T11:33:46.024Z,7.37
2019-03-25T11:36:17.881Z,6.70
2019-03-25T11:38:49.608Z,7.60
2019-03-25T11:41:21.381Z,7.50
2019-03-25T11:46:46.867Z,7.43
2019-03-25T11:49:18.864Z,6.70
2019-03-25T11:52:08.946Z,7.73
2019-03-25T11:54:40.924Z,7.67
2019-03-25T11:57:12.604Z,7.00
2019-03-25T11:59:44.376Z,6.80
2019-03-25T12:02:17.769Z,5.80
2019-03-25T12:04:49.732Z,5.80
2019-03-25T12:07:21.436Z,4.10
2019-03-25T12:09:53.116Z,4.40
2019-03-25T12:12:24.874Z,4.40
2019-03-25T12:14:57.602Z,4.07
2019-03-25T12:17:29.372Z,3.33
2019-03-25T12:20:01.084Z,3.60
2019-03-25T12:22:32.832Z,3.30
2019-03-25T12:25:04.589Z,3.20
2019-03-25T12:27:36.365Z,3.10
2019-03-25T12:30:09.043Z,2.70
2019-03-25T12:32:40.726Z,2.57
2019-03-25T12:35:12.560Z,2.63
2019-03-25T12:37:44.756Z,2.40
2019-03-25T12:40:16.510Z,2.33
2019-03-25T12:42:48.361Z,2.17
2019-03-25T12:45:21.166Z,2.00
2019-03-25T12:47:52.870Z,1.90
2019-03-25T12:50:24.534Z,2.67
2019-03-25T12:52:56.216Z,2.10
2019-03-25T12:55:27.884Z,2.17
2019-03-25T12:57:59.548Z,1.90
2019-03-25T13:00:41.510Z,1.90
2019-03-25T13:03:13.514Z,2.10
2019-03-25T13:05:45.567Z,2.30
2019-03-25T13:08:17.294Z,1.93
2019-03-25T13:10:49.472Z,2.47
2019-03-25T13:13:21.193Z,2.27
2019-03-25T13:15:53.304Z,2.27
2019-03-25T13:18:24.969Z,2.47
2019-03-25T13:20:57.656Z,2.13
2019-03-25T13:23:29.615Z,2.10
2019-03-25T13:26:01.355Z,2.00
2019-03-25T13:28:33.146Z,1.83
2019-03-25T13:31:04.794Z,2.87
2019-03-25T13:33:36.486Z,1.90
2019-03-25T13:36:08.918Z,2.37
2019-03-25T13:38:40.912Z,2.00
2019-03-25T13:41:12.589Z,2.40
2019-03-25T13:43:44.419Z,2.00
2019-03-25T13:46:16.123Z,2.00
2019-03-25T13:48:47.771Z,2.20
2019-03-25T13:51:19.707Z,2.13
2019-03-25T13:53:51.343Z,1.80
2019-03-25T13:56:23.104Z,2.10
2019-03-25T13:58:54.709Z,1.80
2019-03-25T14:01:26.532Z,2.10
2019-03-25T14:03:58.227Z,1.93
2019-03-25T14:06:30.144Z,2.20
2019-03-25T14:09:02.178Z,2.27
2019-03-25T14:11:35.601Z,2.03
2019-03-25T14:14:07.241Z,2.53
2019-03-25T14:16:39.126Z,2.07
2019-03-25T14:19:10.853Z,2.07
2019-03-25T14:21:42.749Z,2.20
2019-03-25T14:24:14.387Z,2.20
2019-03-25T14:26:46.369Z,2.07
2019-03-25T14:29:18.091Z,2.27
2019-03-25T14:31:49.791Z,2.10
2019-03-25T14:34:21.483Z,2.07
2019-03-25T14:36:53.613Z,2.33
2019-03-25T14:39:25.301Z,2.43
2019-03-25T14:41:57.057Z,2.17
2019-03-25T14:44:28.667Z,2.20
2019-03-25T14:47:00.648Z,2.47
2019-03-25T14:49:32.375Z,2.30
2019-03-25T14:52:15.541Z,2.13
2019-03-25T14:54:47.364Z,2.30
2019-03-25T14:57:19.184Z,2.37
2019-03-25T14:59:50.827Z,2.47
2019-03-25T15:02:24.418Z,2.33
2019-03-25T15:04:56.051Z,2.70
2019-03-25T15:07:27.829Z,2.57
2019-03-25T15:09:59.619Z,2.60
2019-03-25T15:12:31.715Z,2.57
2019-03-25T15:15:03.347Z,3.07
2019-03-25T15:17:35.273Z,2.60
2019-03-25T15:20:10.075Z,3.40
2019-03-25T15:22:42.275Z,2.80
2019-03-25T15:25:15.203Z,2.43
2019-03-25T15:27:47.335Z,2.30
2019-03-25T15:30:19.482Z,2.33
2019-03-25T15:32:51.373Z,2.30
2019-03-25T15:35:23.021Z,2.70
2019-03-25T15:37:55.186Z,2.60
2019-03-25T15:40:27.092Z,2.40
2019-03-25T15:42:59.497Z,2.37
2019-03-25T15:45:31.743Z,2.40
2019-03-25T15:48:03.769Z,2.60
2019-03-25T15:50:35.871Z,3.00
2019-03-25T15:53:07.865Z,2.93
2019-03-25T15:55:39.561Z,2.93
2019-03-25T15:58:11.310Z,2.73
2019-03-25T16:00:47.881Z,2.60
2019-03-25T16:03:17.281Z,3.10
2019-03-25T16:05:48.921Z,2.77
2019-03-25T16:08:21.109Z,2.70
2019-03-25T16:10:52.909Z,2.90
2019-03-25T16:13:24.847Z,2.50
2019-03-25T16:15:57.149Z,3.03
2019-03-25T16:18:42.306Z,3.30
2019-03-25T16:21:15.159Z,3.27
2019-03-25T16:23:47.129Z,3.37
2019-03-25T16:26:19.037Z,3.20
2019-03-25T16:28:50.952Z,3.03
2019-03-25T16:31:22.659Z,3.30
2019-03-25T16:33:54.736Z,2.90
2019-03-25T16:36:26.759Z,3.20
2019-03-25T16:38:58.701Z,2.90
2019-03-25T16:41:35.683Z,3.40
2019-03-25T16:44:07.774Z,3.10
2019-03-25T16:46:39.391Z,3.33
2019-03-25T16:49:11.671Z,3.20
2019-03-25T16:51:43.316Z,3.33
2019-03-25T16:54:15.213Z,3.23
2019-03-25T16:56:47.024Z,2.70
2019-03-25T16:59:18.924Z,2.93
2019-03-25T17:01:50.707Z,3.17
2019-03-25T17:04:22.753Z,3.03
2019-03-25T17:06:54.653Z,3.20
2019-03-25T17:09:26.586Z,3.00
2019-03-25T17:11:58.527Z,2.73
2019-03-25T17:14:30.399Z,3.07
2019-03-25T17:17:02.299Z,2.90
2019-03-25T17:19:34.325Z,3.40
2019-03-25T17:22:06.035Z,2.80
2019-03-25T17:24:38.855Z,2.97
2019-03-25T17:27:10.443Z,2.90
2019-03-25T17:29:42.481Z,2.80
2019-03-25T17:32:14.081Z,3.83
2019-03-25T17:34:45.925Z,3.27
2019-03-25T17:37:17.997Z,2.90
2019-03-25T17:39:49.841Z,3.20
2019-03-25T17:42:21.773Z,2.90
2019-03-25T17:44:54.595Z,3.47
2019-03-25T17:47:26.307Z,3.20
2019-03-25T17:49:58.730Z,3.27
2019-03-25T17:52:30.617Z,3.30
2019-03-25T17:55:03.098Z,3.60
2019-03-25T17:57:34.874Z,3.73
2019-03-25T18:00:09.083Z,3.60
2019-03-25T18:02:41.129Z,3.73
2019-03-25T18:05:13.573Z,4.00
2019-03-25T18:07:45.354Z,3.20
2019-03-25T18:10:17.412Z,3.70
2019-03-25T18:12:49.515Z,3.27
2019-03-25T18:15:21.649Z,2.97
2019-03-25T18:17:53.298Z,3.00
2019-03-25T18:20:25.361Z,3.50
2019-03-25T18:22:57.030Z,3.60
2019-03-25T18:25:28.882Z,3.40
2019-03-25T18:28:00.620Z,3.07
2019-03-25T18:30:34.652Z,3.10
2019-03-25T18:33:06.698Z,2.93
2019-03-25T18:35:38.613Z,2.90
2019-03-25T18:38:10.489Z,2.83
2019-03-25T18:40:42.607Z,2.70
2019-03-25T18:43:14.427Z,2.70
2019-03-25T18:45:46.632Z,3.23
2019-03-25T18:48:20.970Z,3.10
2019-03-25T18:50:52.927Z,3.13
2019-03-25T18:53:24.766Z,2.87
2019-03-25T18:55:56.920Z,3.33
2019-03-25T18:58:28.624Z,3.03
2019-03-25T19:01:00.541Z,3.03
2019-03-25T19:03:33.194Z,3.23
2019-03-25T19:06:05.147Z,2.83
2019-03-25T19:08:47.849Z,3.30
2019-03-25T19:11:30.578Z,2.83
2019-03-25T19:13:53.242Z,2.93
2019-03-25T19:16:25.384Z,2.93
2019-03-25T19:18:58.129Z,2.80
2019-03-25T19:21:31.159Z,2.80
2019-03-25T19:24:03.328Z,3.03
2019-03-25T19:26:35.505Z,2.90
2019-03-25T19:29:07.647Z,3.20
2019-03-25T19:31:39.602Z,3.10
2019-03-25T19:34:11.279Z,2.37
2019-03-25T19:36:43.122Z,2.53
2019-03-25T19:39:14.884Z,2.87
2019-03-25T19:41:47.766Z,2.37
2019-03-25T19:44:19.489Z,2.90
2019-03-25T19:46:51.483Z,2.40
2019-03-25T19:49:23.250Z,2.20
2019-03-25T19:51:55.318Z,2.90
2019-03-25T19:54:27.049Z,2.70
2019-03-25T19:56:59.073Z,2.53
2019-03-25T19:59:30.771Z,2.60
2019-03-25T20:02:02.683Z,2.60
2019-03-25T20:04:34.453Z,2.60
2019-03-25T20:07:06.686Z,2.20
2019-03-25T20:09:57.214Z,3.00
2019-03-25T20:12:29.553Z,4.40
2019-03-25T20:15:01.171Z,2.87
2019-03-25T20:17:32.950Z,2.70
2019-03-25T20:20:04.992Z,3.47
2019-03-25T20:22:37.038Z,3.63
2019-03-25T20:25:08.818Z,3.27
2019-03-25T20:27:40.865Z,2.90
2019-03-25T20:30:13.139Z,3.70
2019-03-25T20:32:45.082Z,3.10
2019-03-25T20:35:16.848Z,2.70
2019-03-25T20:37:48.815Z,3.40
2019-03-25T20:40:20.471Z,3.50
2019-03-25T20:42:52.561Z,3.23
2019-03-25T20:45:24.378Z,3.40
2019-03-25T20:47:56.647Z,3.43
2019-03-25T20:50:29.415Z,3.40
2019-03-25T20:53:01.585Z,3.27
2019-03-25T20:55:33.258Z,4.17
2019-03-25T20:58:05.142Z,3.83
2019-03-25T21:00:53.605Z,3.50
2019-03-25T21:03:25.420Z,3.90
2019-03-25T21:05:57.096Z,4.30
2019-03-25T21:08:28.965Z,4.50
2019-03-25T21:11:00.640Z,4.07
2019-03-25T21:13:32.776Z,4.50
2019-03-25T21:16:04.847Z,4.07
2019-03-25T21:18:36.958Z,4.53
2019-03-25T21:21:08.715Z,4.90
2019-03-25T21:23:40.677Z,4.40
2019-03-25T21:26:12.435Z,4.90
2019-03-25T21:28:44.558Z,4.37
2019-03-25T21:31:16.223Z,4.93
2019-03-25T21:33:48.359Z,4.17
2019-03-25T21:36:20.081Z,4.70
2019-03-25T21:38:52.004Z,4.47
2019-03-25T21:41:23.668Z,4.60
2019-03-25T21:43:55.638Z,4.30
2019-03-25T21:46:27.372Z,4.87
2019-03-25T21:48:59.315Z,4.50
2019-03-25T21:51:31.106Z,4.40
2019-03-25T21:54:03.188Z,4.57
2019-03-25T21:56:34.947Z,4.70
2019-03-25T21:59:06.696Z,4.53
2019-03-25T22:01:38.482Z,4.60
2019-03-25T22:04:10.280Z,4.20
2019-03-25T22:06:42.014Z,5.00
2019-03-25T22:09:13.958Z,4.90
2019-03-25T22:11:46.863Z,4.30
2019-03-25T22:14:18.784Z,5.10
2019-03-25T22:16:51.586Z,4.40
2019-03-25T22:19:34.191Z,4.23
2019-03-25T22:22:07.064Z,4.17
2019-03-25T22:24:39.206Z,4.07
2019-03-25T22:27:21.739Z,4.27
2019-03-25T22:29:54.600Z,4.30
2019-03-25T22:32:27.469Z,4.40
2019-03-25T22:34:59.305Z,4.03
2019-03-25T22:37:31.048Z,4.63
2019-03-25T22:40:02.828Z,4.67
2019-03-25T22:42:35.596Z,4.70
2019-03-25T22:45:08.257Z,4.33
2019-03-25T22:47:39.860Z,4.30
2019-03-25T22:50:21.777Z,5.10
2019-03-25T22:52:53.368Z,4.80
2019-03-25T22:55:25.430Z,4.10
2019-03-25T22:57:57.504Z,4.93
2019-03-25T23:00:46.153Z,4.67
2019-03-25T23:03:18.079Z,4.17
2019-03-25T23:05:49.980Z,3.93
2019-03-25T23:08:21.612Z,4.23
2019-03-25T23:10:53.359Z,3.80
2019-03-25T23:13:24.966Z,3.77
2019-03-25T23:15:56.656Z,3.77
2019-03-25T23:18:28.286Z,3.20
2019-03-25T23:21:00.125Z,3.67
2019-03-25T23:23:31.748Z,4.07
2019-03-25T23:26:03.550Z,3.53
2019-03-25T23:28:35.296Z,3.80
2019-03-25T23:31:12.902Z,3.83
2019-03-25T23:33:52.121Z,4.20
2019-03-25T23:36:17.996Z,3.90
2019-03-25T23:38:49.646Z,3.77
2019-03-25T23:41:21.564Z,3.93
2019-03-25T23:43:53.160Z,3.90
2019-03-25T23:46:24.976Z,3.33
2019-03-25T23:48:56.784Z,3.50
2019-03-25T23:51:28.704Z,3.50
2019-03-25T23:54:13.009Z,3.80
2019-03-25T23:56:44.822Z,4.37
2019-03-25T23:59:16.424Z,4.00
